sensor_id;sensor_type;location;lat;lon;timestamp;pressure;altitude;pressure_sealevel;temperature;humidity
36304;BME280;22335;49.800;8.596;2022-10-26T00:05:34;100462.41;;;19.81;53.31
36304;BME280;22335;49.800;8.596;2022-10-26T00:12:20;100450.72;;;19.75;53.58
36304;BME280;22335;49.800;8.596;2022-10-26T00:19:08;100432.34;;;19.71;53.63
36304;BME280;22335;49.800;8.596;2022-10-26T00:25:53;100440.31;;;19.72;53.45
36304;BME280;22335;49.800;8.596;2022-10-26T00:32:39;100434.75;;;19.72;54.02
36304;BME280;22335;49.800;8.596;2022-10-26T00:39:27;100455.13;;;19.64;53.99
36304;BME280;22335;49.800;8.596;2022-10-26T00:46:15;100424.66;;;19.31;53.93
36304;BME280;22335;49.800;8.596;2022-10-26T00:53:04;100443.53;;;19.62;53.85
36304;BME280;22335;49.800;8.596;2022-10-26T00:59:54;100444.88;;;19.31;53.96
36304;BME280;22335;49.800;8.596;2022-10-26T01:06:42;100478.53;;;19.42;53.95
36304;BME280;22335;49.800;8.596;2022-10-26T01:13:29;100470.09;;;19.51;53.96
36304;BME280;22335;49.800;8.596;2022-10-26T01:20:47;100444.09;;;19.43;54.25
36304;BME280;22335;49.800;8.596;2022-10-26T01:27:56;100453.00;;;19.49;54.60
36304;BME280;22335;49.800;8.596;2022-10-26T01:34:50;100430.09;;;19.40;54.51
36304;BME280;22335;49.800;8.596;2022-10-26T01:41:44;100379.34;;;19.15;54.79
36304;BME280;22335;49.800;8.596;2022-10-26T01:48:32;100431.59;;;19.37;54.58
36304;BME280;22335;49.800;8.596;2022-10-26T01:55:47;100425.13;;;19.33;54.73
36304;BME280;22335;49.800;8.596;2022-10-26T02:02:41;100426.84;;;19.38;54.79
36304;BME280;22335;49.800;8.596;2022-10-26T02:09:41;100419.91;;;19.31;54.88
36304;BME280;22335;49.800;8.596;2022-10-26T02:16:42;100421.28;;;19.25;55.28
36304;BME280;22335;49.800;8.596;2022-10-26T02:23:34;100407.31;;;19.22;54.96
36304;BME280;22335;49.800;8.596;2022-10-26T02:30:22;100410.44;;;19.20;55.21
36304;BME280;22335;49.800;8.596;2022-10-26T02:37:11;100400.84;;;19.18;55.30
36304;BME280;22335;49.800;8.596;2022-10-26T02:44:01;100400.47;;;19.19;54.88
36304;BME280;22335;49.800;8.596;2022-10-26T03:04:40;100377.16;;;19.20;55.54
36304;BME280;22335;49.800;8.596;2022-10-26T03:11:25;100385.34;;;19.29;55.07
36304;BME280;22335;49.800;8.596;2022-10-26T03:18:10;100397.84;;;19.35;55.24
36304;BME280;22335;49.800;8.596;2022-10-26T03:24:58;100408.22;;;19.26;55.71
36304;BME280;22335;49.800;8.596;2022-10-26T03:31:44;100401.66;;;19.18;55.46
36304;BME280;22335;49.800;8.596;2022-10-26T03:38:34;100347.34;;;18.72;55.38
36304;BME280;22335;49.800;8.596;2022-10-26T03:45:22;100459.78;;;19.27;55.69
36304;BME280;22335;49.800;8.596;2022-10-26T03:52:08;100463.94;;;19.21;55.90
36304;BME280;22335;49.800;8.596;2022-10-26T03:58:53;100466.59;;;19.17;55.92
36304;BME280;22335;49.800;8.596;2022-10-26T04:05:41;100422.84;;;18.69;56.27
36304;BME280;22335;49.800;8.596;2022-10-26T04:12:26;100423.31;;;18.71;56.35
36304;BME280;22335;49.800;8.596;2022-10-26T04:19:12;100397.84;;;18.77;56.14
36304;BME280;22335;49.800;8.596;2022-10-26T04:26:00;100404.13;;;18.86;56.16
36304;BME280;22335;49.800;8.596;2022-10-26T04:32:45;100370.69;;;18.71;56.28
36304;BME280;22335;49.800;8.596;2022-10-26T04:39:31;100388.06;;;18.92;56.05
36304;BME280;22335;49.800;8.596;2022-10-26T04:46:19;100403.31;;;18.98;56.38
36304;BME280;22335;49.800;8.596;2022-10-26T04:53:05;100405.53;;;18.93;56.25
36304;BME280;22335;49.800;8.596;2022-10-26T04:59:52;100392.44;;;18.81;55.68
36304;BME280;22335;49.800;8.596;2022-10-26T05:06:39;100423.22;;;19.00;55.63
36304;BME280;22335;49.800;8.596;2022-10-26T05:13:25;100428.44;;;19.14;55.37
36304;BME280;22335;49.800;8.596;2022-10-26T05:20:10;100422.56;;;19.16;55.25
36304;BME280;22335;49.800;8.596;2022-10-26T05:26:59;100412.03;;;19.09;55.68
36304;BME280;22335;49.800;8.596;2022-10-26T05:33:47;100415.59;;;19.09;55.82
36304;BME280;22335;49.800;8.596;2022-10-26T05:40:33;100406.59;;;19.12;55.30
36304;BME280;22335;49.800;8.596;2022-10-26T05:47:21;100400.16;;;19.21;55.30
36304;BME280;22335;49.800;8.596;2022-10-26T05:54:07;100432.50;;;19.29;55.79
36304;BME280;22335;49.800;8.596;2022-10-26T06:01:06;100422.66;;;19.19;55.52
36304;BME280;22335;49.800;8.596;2022-10-26T06:08:00;100453.66;;;19.21;55.79
36304;BME280;22335;49.800;8.596;2022-10-26T06:14:46;100465.66;;;19.25;55.99
36304;BME280;22335;49.800;8.596;2022-10-26T06:21:53;100464.34;;;19.10;55.89
36304;BME280;22335;49.800;8.596;2022-10-26T06:28:54;100488.38;;;19.06;56.22
36304;BME280;22335;49.800;8.596;2022-10-26T06:35:51;100491.72;;;18.79;56.51
36304;BME280;22335;49.800;8.596;2022-10-26T06:42:43;100497.59;;;18.56;56.70
36304;BME280;22335;49.800;8.596;2022-10-26T06:49:33;100498.34;;;18.86;55.78
36304;BME280;22335;49.800;8.596;2022-10-26T06:56:20;100510.03;;;18.71;56.38
36304;BME280;22335;49.800;8.596;2022-10-26T07:03:06;100510.19;;;18.75;56.50
36304;BME280;22335;49.800;8.596;2022-10-26T07:09:54;100506.88;;;18.81;56.89
36304;BME280;22335;49.800;8.596;2022-10-26T07:16:39;100523.00;;;19.00;56.71
36304;BME280;22335;49.800;8.596;2022-10-26T07:23:25;100533.66;;;19.10;57.08
36304;BME280;22335;49.800;8.596;2022-10-26T07:30:33;100514.94;;;19.07;57.10
36304;BME280;22335;49.800;8.596;2022-10-26T07:37:18;100535.66;;;19.22;56.66
36304;BME280;22335;49.800;8.596;2022-10-26T07:44:04;100555.94;;;19.35;57.45
36304;BME280;22335;49.800;8.596;2022-10-26T07:50:52;100559.34;;;19.20;57.87
36304;BME280;22335;49.800;8.596;2022-10-26T07:57:37;100573.81;;;19.04;58.23
36304;BME280;22335;49.800;8.596;2022-10-26T08:04:23;100556.41;;;18.83;58.39
36304;BME280;22335;49.800;8.596;2022-10-26T08:11:12;100556.16;;;18.67;59.00
36304;BME280;22335;49.800;8.596;2022-10-26T08:17:57;100564.06;;;18.56;59.24
36304;BME280;22335;49.800;8.596;2022-10-26T08:24:43;100571.44;;;18.52;59.45
36304;BME280;22335;49.800;8.596;2022-10-26T08:31:32;100591.28;;;18.54;59.93
36304;BME280;22335;49.800;8.596;2022-10-26T08:38:17;100518.41;;;18.12;60.15
36304;BME280;22335;49.800;8.596;2022-10-26T08:45:09;100576.63;;;18.54;60.66
36304;BME280;22335;49.800;8.596;2022-10-26T08:52:13;100585.88;;;18.58;60.97
36304;BME280;22335;49.800;8.596;2022-10-26T08:59:06;100590.38;;;18.71;61.44
36304;BME280;22335;49.800;8.596;2022-10-26T09:06:08;100590.69;;;18.99;61.04
36304;BME280;22335;49.800;8.596;2022-10-26T09:13:04;100599.06;;;19.11;61.09
36304;BME280;22335;49.800;8.596;2022-10-26T09:20:05;100615.75;;;19.24;60.78
36304;BME280;22335;49.800;8.596;2022-10-26T09:27:12;100635.25;;;19.36;60.90
36304;BME280;22335;49.800;8.596;2022-10-26T09:34:06;100624.16;;;19.36;61.00
36304;BME280;22335;49.800;8.596;2022-10-26T09:41:02;100643.25;;;19.50;60.82
36304;BME280;22335;49.800;8.596;2022-10-26T09:47:56;100654.59;;;19.57;61.05
36304;BME280;22335;49.800;8.596;2022-10-26T09:54:50;100645.59;;;19.60;61.03
36304;BME280;22335;49.800;8.596;2022-10-26T10:01:36;100656.44;;;19.74;61.17
36304;BME280;22335;49.800;8.596;2022-10-26T10:08:24;100650.41;;;20.05;61.28
36304;BME280;22335;49.800;8.596;2022-10-26T10:15:19;100671.84;;;20.17;60.71
36304;BME280;22335;49.800;8.596;2022-10-26T10:22:10;100678.25;;;20.42;60.83
36304;BME280;22335;49.800;8.596;2022-10-26T10:29:08;100687.53;;;20.58;60.67
36304;BME280;22335;49.800;8.596;2022-10-26T10:36:05;100694.97;;;20.66;60.91
36304;BME280;22335;49.800;8.596;2022-10-26T10:43:02;100713.63;;;20.78;60.81
36304;BME280;22335;49.800;8.596;2022-10-26T10:49:51;100707.81;;;20.83;60.85
36304;BME280;22335;49.800;8.596;2022-10-26T10:56:46;100703.88;;;20.84;61.11
36304;BME280;22335;49.800;8.596;2022-10-26T11:03:54;100708.25;;;20.98;60.76
36304;BME280;22335;49.800;8.596;2022-10-26T11:11:18;100705.94;;;21.00;60.65
36304;BME280;22335;49.800;8.596;2022-10-26T11:18:12;100718.19;;;21.23;60.81
36304;BME280;22335;49.800;8.596;2022-10-26T11:25:02;100716.78;;;21.41;60.96
36304;BME280;22335;49.800;8.596;2022-10-26T11:31:55;100726.81;;;21.58;60.34
36304;BME280;22335;49.800;8.596;2022-10-26T11:38:50;100722.38;;;21.70;60.34
36304;BME280;22335;49.800;8.596;2022-10-26T11:45:56;100727.56;;;21.83;60.45
36304;BME280;22335;49.800;8.596;2022-10-26T11:52:48;100733.38;;;22.06;60.56
36304;BME280;22335;49.800;8.596;2022-10-26T11:59:42;100732.53;;;22.18;60.29
36304;BME280;22335;49.800;8.596;2022-10-26T12:06:31;100739.56;;;22.28;60.00
36304;BME280;22335;49.800;8.596;2022-10-26T12:13:24;100740.66;;;22.39;59.89
36304;BME280;22335;49.800;8.596;2022-10-26T12:20:36;100738.75;;;22.43;60.17
36304;BME280;22335;49.800;8.596;2022-10-26T12:27:53;100737.16;;;22.42;59.89
36304;BME280;22335;49.800;8.596;2022-10-26T12:34:57;100736.88;;;22.47;60.34
36304;BME280;22335;49.800;8.596;2022-10-26T12:41:55;100742.19;;;22.52;59.92
36304;BME280;22335;49.800;8.596;2022-10-26T12:48:42;100749.19;;;22.62;59.83
36304;BME280;22335;49.800;8.596;2022-10-26T12:55:55;100740.94;;;22.66;59.85
36304;BME280;22335;49.800;8.596;2022-10-26T13:02:59;100760.72;;;22.76;59.91
36304;BME280;22335;49.800;8.596;2022-10-26T13:10:03;100678.09;;;22.37;59.54
36304;BME280;22335;49.800;8.596;2022-10-26T13:16:50;100764.09;;;22.98;59.67
36304;BME280;22335;49.800;8.596;2022-10-26T13:23:40;100762.00;;;23.11;59.75
36304;BME280;22335;49.800;8.596;2022-10-26T13:30:45;100764.09;;;23.33;59.25
36304;BME280;22335;49.800;8.596;2022-10-26T13:37:32;100747.44;;;23.56;58.68
36304;BME280;22335;49.800;8.596;2022-10-26T13:51:17;100762.63;;;23.75;58.36
36304;BME280;22335;49.800;8.596;2022-10-26T13:58:17;100764.78;;;23.65;58.44
36304;BME280;22335;49.800;8.596;2022-10-26T14:05:12;100775.16;;;23.65;58.64
36304;BME280;22335;49.800;8.596;2022-10-26T14:11:59;100787.94;;;23.66;58.37
36304;BME280;22335;49.800;8.596;2022-10-26T14:18:47;100790.25;;;23.60;58.36
36304;BME280;22335;49.800;8.596;2022-10-26T14:25:35;100790.91;;;23.54;58.13
36304;BME280;22335;49.800;8.596;2022-10-26T14:32:35;100798.66;;;23.44;58.49
36304;BME280;22335;49.800;8.596;2022-10-26T14:39:28;100811.50;;;23.49;58.42
36304;BME280;22335;49.800;8.596;2022-10-26T14:46:19;100800.28;;;23.45;58.52
36304;BME280;22335;49.800;8.596;2022-10-26T14:53:13;100821.50;;;23.50;58.42
36304;BME280;22335;49.800;8.596;2022-10-26T15:00:00;100816.63;;;23.47;58.51
36304;BME280;22335;49.800;8.596;2022-10-26T15:06:51;100816.03;;;23.38;58.37
36304;BME280;22335;49.800;8.596;2022-10-26T15:13:39;100835.31;;;23.43;58.72
36304;BME280;22335;49.800;8.596;2022-10-26T15:20:27;100849.53;;;23.38;58.59
36304;BME280;22335;49.800;8.596;2022-10-26T15:27:16;100840.09;;;23.27;58.94
36304;BME280;22335;49.800;8.596;2022-10-26T15:34:13;100850.47;;;23.26;58.77
36304;BME280;22335;49.800;8.596;2022-10-26T15:40:58;100869.47;;;23.20;58.81
36304;BME280;22335;49.800;8.596;2022-10-26T15:47:47;100865.41;;;23.02;59.11
36304;BME280;22335;49.800;8.596;2022-10-26T15:54:33;100872.59;;;23.03;59.25
36304;BME280;22335;49.800;8.596;2022-10-26T16:01:20;100873.91;;;22.93;58.82
36304;BME280;22335;49.800;8.596;2022-10-26T16:08:11;100893.50;;;22.81;59.24
36304;BME280;22335;49.800;8.596;2022-10-26T16:14:59;100891.97;;;22.84;59.10
36304;BME280;22335;49.800;8.596;2022-10-26T16:21:50;100901.31;;;22.75;58.94
36304;BME280;22335;49.800;8.596;2022-10-26T16:28:38;100905.75;;;22.76;59.10
36304;BME280;22335;49.800;8.596;2022-10-26T16:35:23;100921.25;;;22.90;58.59
36304;BME280;22335;49.800;8.596;2022-10-26T16:42:09;100916.06;;;22.76;58.57
36304;BME280;22335;49.800;8.596;2022-10-26T16:48:57;100917.66;;;22.61;59.25
36304;BME280;22335;49.800;8.596;2022-10-26T16:55:43;100943.00;;;22.56;58.86
36304;BME280;22335;49.800;8.596;2022-10-26T17:02:28;100950.00;;;22.50;58.67
36304;BME280;22335;49.800;8.596;2022-10-26T17:09:16;100954.88;;;22.53;58.80
36304;BME280;22335;49.800;8.596;2022-10-26T17:16:03;100946.53;;;22.41;58.74
36304;BME280;22335;49.800;8.596;2022-10-26T17:22:50;100947.81;;;22.43;58.44
36304;BME280;22335;49.800;8.596;2022-10-26T17:29:38;100983.44;;;22.50;58.58
36304;BME280;22335;49.800;8.596;2022-10-26T17:36:24;101002.28;;;22.41;58.82
36304;BME280;22335;49.800;8.596;2022-10-26T17:43:12;101024.13;;;22.26;58.93
36304;BME280;22335;49.800;8.596;2022-10-26T17:50:00;101037.84;;;22.19;58.93
36304;BME280;22335;49.800;8.596;2022-10-26T17:56:45;101046.88;;;22.04;58.84
36304;BME280;22335;49.800;8.596;2022-10-26T18:03:31;101047.81;;;21.96;59.08
36304;BME280;22335;49.800;8.596;2022-10-26T18:10:19;101039.00;;;21.94;59.04
36304;BME280;22335;49.800;8.596;2022-10-26T18:17:18;101063.47;;;22.00;59.13
36304;BME280;22335;49.800;8.596;2022-10-26T18:24:05;101068.50;;;22.19;59.04
36304;BME280;22335;49.800;8.596;2022-10-26T18:30:58;101028.06;;;21.88;58.80
36304;BME280;22335;49.800;8.596;2022-10-26T18:37:45;101079.72;;;22.10;58.80
36304;BME280;22335;49.800;8.596;2022-10-26T18:44:31;101097.06;;;22.16;58.93
36304;BME280;22335;49.800;8.596;2022-10-26T18:51:20;101097.13;;;22.07;58.60
36304;BME280;22335;49.800;8.596;2022-10-26T18:58:10;101042.91;;;21.68;58.94
36304;BME280;22335;49.800;8.596;2022-10-26T19:04:55;101101.31;;;22.14;58.43
36304;BME280;22335;49.800;8.596;2022-10-26T19:11:44;101116.44;;;22.49;57.97
36304;BME280;22335;49.800;8.596;2022-10-26T19:18:30;101122.94;;;22.41;57.48
36304;BME280;22335;49.800;8.596;2022-10-26T19:25:15;101136.31;;;22.48;57.22
36304;BME280;22335;49.800;8.596;2022-10-26T19:32:03;101125.03;;;22.32;57.13
36304;BME280;22335;49.800;8.596;2022-10-26T19:38:49;101138.63;;;22.33;57.61
36304;BME280;22335;49.800;8.596;2022-10-26T19:45:35;101120.97;;;22.29;57.07
36304;BME280;22335;49.800;8.596;2022-10-26T19:52:23;101148.03;;;22.41;57.09
36304;BME280;22335;49.800;8.596;2022-10-26T19:59:09;101144.66;;;22.48;56.85
36304;BME280;22335;49.800;8.596;2022-10-26T20:05:56;101145.03;;;22.46;56.70
36304;BME280;22335;49.800;8.596;2022-10-26T20:12:45;101152.69;;;22.49;56.72
36304;BME280;22335;49.800;8.596;2022-10-26T20:19:31;101157.56;;;22.52;56.26
36304;BME280;22335;49.800;8.596;2022-10-26T20:26:16;101162.34;;;22.52;56.31
36304;BME280;22335;49.800;8.596;2022-10-26T20:33:09;101174.63;;;22.51;56.15
36304;BME280;22335;49.800;8.596;2022-10-26T20:39:55;101162.44;;;22.43;56.03
36304;BME280;22335;49.800;8.596;2022-10-26T20:46:46;101167.22;;;22.43;55.81
36304;BME280;22335;49.800;8.596;2022-10-26T20:53:36;101184.75;;;22.43;55.23
36304;BME280;22335;49.800;8.596;2022-10-26T21:00:28;101175.69;;;22.34;55.51
36304;BME280;22335;49.800;8.596;2022-10-26T21:07:14;101200.78;;;22.34;55.09
36304;BME280;22335;49.800;8.596;2022-10-26T21:14:02;101179.81;;;22.16;55.31
36304;BME280;22335;49.800;8.596;2022-10-26T21:20:48;101198.66;;;22.19;55.26
36304;BME280;22335;49.800;8.596;2022-10-26T21:27:33;101201.50;;;22.10;55.06
36304;BME280;22335;49.800;8.596;2022-10-26T21:34:21;101179.63;;;21.87;55.08
36304;BME280;22335;49.800;8.596;2022-10-26T21:41:08;101204.50;;;21.93;54.65
36304;BME280;22335;49.800;8.596;2022-10-26T21:47:54;101204.56;;;21.84;54.94
36304;BME280;22335;49.800;8.596;2022-10-26T21:54:42;101200.25;;;21.74;54.55
36304;BME280;22335;49.800;8.596;2022-10-26T22:01:28;101227.19;;;21.82;54.32
36304;BME280;22335;49.800;8.596;2022-10-26T22:08:13;101216.59;;;21.76;54.50
36304;BME280;22335;49.800;8.596;2022-10-26T22:15:01;101215.75;;;21.63;54.18
36304;BME280;22335;49.800;8.596;2022-10-26T22:21:47;101228.50;;;21.64;54.47
36304;BME280;22335;49.800;8.596;2022-10-26T22:28:33;101223.00;;;21.55;54.01
36304;BME280;22335;49.800;8.596;2022-10-26T22:35:25;101209.56;;;21.36;53.93
36304;BME280;22335;49.800;8.596;2022-10-26T22:42:11;101219.72;;;21.32;54.12
36304;BME280;22335;49.800;8.596;2022-10-26T22:48:58;101221.06;;;21.26;54.29
36304;BME280;22335;49.800;8.596;2022-10-26T22:55:47;101210.28;;;21.04;54.33
36304;BME280;22335;49.800;8.596;2022-10-26T23:02:33;101231.03;;;21.06;53.66
36304;BME280;22335;49.800;8.596;2022-10-26T23:09:18;101224.72;;;20.97;54.10
36304;BME280;22335;49.800;8.596;2022-10-26T23:16:08;101236.03;;;20.92;53.88
36304;BME280;22335;49.800;8.596;2022-10-26T23:22:54;101233.91;;;20.89;53.79
36304;BME280;22335;49.800;8.596;2022-10-26T23:29:39;101239.47;;;20.89;53.57
36304;BME280;22335;49.800;8.596;2022-10-26T23:36:47;101230.09;;;20.72;53.74
36304;BME280;22335;49.800;8.596;2022-10-26T23:43:34;101232.91;;;20.64;53.59
36304;BME280;22335;49.800;8.596;2022-10-26T23:50:19;101248.63;;;20.60;53.47
36304;BME280;22335;49.800;8.596;2022-10-26T23:57:07;101247.97;;;20.45;53.50
